This is the latest recevied weather packets stored in our database for station/object GW1601. If no packets are shown the sender has not sent any weather packets the latest 10 day(s).
| Time | Temp. | Humidity | Pressure | Rain* | Wind** | Luminosity | Snow |
|---|---|---|---|---|---|---|---|
| 1777651428 | 12.22° C | 76% | 987.4 hPa | 0 mm | - | - | - |
| 1777649615 | 12.78° C | 68% | 987.1 hPa | 0 mm | - | - | - |
| 1777648171 | 12.78° C | 71% | 987.4 hPa | 0 mm | - | - | - |
| 1777646744 | 12.78° C | 71% | 987.4 hPa | 0 mm | - | - | - |
| 1777644932 | 12.22° C | 70% | 987.8 hPa | 0 mm | - | - | - |
| 1777640613 | 7.78° C | 99% | 988.1 hPa | 0 mm | - | - | - |
| 1777636650 | 3.33° C | 99% | 988.4 hPa | 0 mm | - | - | - |
| 1777634140 | 1.67° C | 99% | 988.8 hPa | 0 mm | - | - | - |
| 1777631268 | 0.56° C | 99% | 988.4 hPa | 0 mm | - | - | - |
| 1777629089 | 0.56° C | 99% | 988.4 hPa | 0 mm | - | - | - |
| 1777628750 | 0.56° C | 99% | 988.4 hPa | 0 mm | - | - | - |
| 1777628362 | 0.56° C | 99% | 988.4 hPa | 0 mm | - | - | - |
| 1777620444 | 1.11° C | 99% | 989.1 hPa | 0 mm | - | - | - |
| 1777613961 | 1.67° C | 99% | 990.1 hPa | 0 mm | - | - | - |
| 1777607483 | 2.78° C | 99% | 990.8 hPa | 0.25 mm | - | - | - |
| 1777605694 | 3.33° C | 99% | 991.1 hPa | 0.25 mm | - | - | - |
| 1777605327 | 3.33° C | 99% | 990.8 hPa | 0.25 mm | - | - | - |
| 1777602431 | 4.44° C | 98% | 990.8 hPa | 0.25 mm | - | - | - |
| 1777601753 | 4.44° C | 97% | 990.8 hPa | 0.25 mm | - | - | - |
| 1777601372 | 4.44° C | 97% | 990.8 hPa | 0.25 mm | - | - | - |
| 1777600669 | 5° C | 96% | 990.8 hPa | 0.25 mm | - | - | - |
| 1777599562 | 5° C | 95% | 990.5 hPa | 0.25 mm | - | - | - |
| 1777597785 | 6.11° C | 90% | 990.1 hPa | 0.25 mm | - | - | - |
| 1777593794 | 9.44° C | 75% | 989.5 hPa | 0.25 mm | - | - | - |
| 1777593442 | 10° C | 74% | 989.5 hPa | 0.25 mm | - | - | - |
* Rain since midnight (hover to see other rain measurements)
** Current wind speed in m/s (hover to see current wind gust speed)